sensor_id;sensor_type;location;lat;lon;timestamp;pressure;altitude;pressure_sealevel;temperature;humidity
49627;BME280;35527;54.616;39.786;2022-10-16T00:01:23;101242.84;;;6.97;86.03
49627;BME280;35527;54.616;39.786;2022-10-16T00:04:25;101256.56;;;7.03;86.41
49627;BME280;35527;54.616;39.786;2022-10-16T00:07:32;101247.13;;;6.97;85.42
49627;BME280;35527;54.616;39.786;2022-10-16T00:10:36;101256.59;;;7.04;85.35
49627;BME280;35527;54.616;39.786;2022-10-16T00:13:42;101249.72;;;7.00;84.29
49627;BME280;35527;54.616;39.786;2022-10-16T00:16:46;101254.00;;;6.95;84.66
49627;BME280;35527;54.616;39.786;2022-10-16T00:19:50;101260.88;;;6.93;84.98
49627;BME280;35527;54.616;39.786;2022-10-16T00:23:15;101254.88;;;6.85;84.67
49627;BME280;35527;54.616;39.786;2022-10-16T00:26:18;101261.72;;;6.92;84.38
49627;BME280;35527;54.616;39.786;2022-10-16T00:29:22;101263.44;;;6.91;84.19
49627;BME280;35527;54.616;39.786;2022-10-16T00:32:28;101258.31;;;6.88;84.49
49627;BME280;35527;54.616;39.786;2022-10-16T00:35:36;101260.88;;;6.93;84.11
49627;BME280;35527;54.616;39.786;2022-10-16T00:38:40;101247.16;;;6.85;82.30
49627;BME280;35527;54.616;39.786;2022-10-16T00:41:44;101264.31;;;6.96;82.93
49627;BME280;35527;54.616;39.786;2022-10-16T00:47:53;101273.72;;;6.94;82.39
49627;BME280;35527;54.616;39.786;2022-10-16T00:51:00;101262.56;;;6.92;81.80
49627;BME280;35527;54.616;39.786;2022-10-16T00:54:08;101256.59;;;6.87;81.41
49627;BME280;35527;54.616;39.786;2022-10-16T00:57:12;101276.31;;;6.96;81.48
49627;BME280;35527;54.616;39.786;2022-10-16T01:00:22;101283.19;;;7.02;80.95
49627;BME280;35527;54.616;39.786;2022-10-16T01:03:33;101271.19;;;6.96;80.92
49627;BME280;35527;54.616;39.786;2022-10-16T01:07:02;101288.31;;;7.03;80.75
49627;BME280;35527;54.616;39.786;2022-10-16T01:10:19;101283.19;;;7.02;80.37
49627;BME280;35527;54.616;39.786;2022-10-16T01:13:34;101287.47;;;7.01;79.79
49627;BME280;35527;54.616;39.786;2022-10-16T01:16:53;101280.59;;;6.91;79.32
49627;BME280;35527;54.616;39.786;2022-10-16T01:20:07;101299.47;;;6.96;79.15
49627;BME280;35527;54.616;39.786;2022-10-16T01:23:42;101283.16;;;6.83;78.69
49627;BME280;35527;54.616;39.786;2022-10-16T01:30:23;101308.06;;;6.93;77.58
49627;BME280;35527;54.616;39.786;2022-10-16T01:33:42;101308.03;;;6.92;77.25
49627;BME280;35527;54.616;39.786;2022-10-16T01:36:52;101306.34;;;6.88;77.04
49627;BME280;35527;54.616;39.786;2022-10-16T01:40:00;101300.34;;;6.76;76.59
49627;BME280;35527;54.616;39.786;2022-10-16T01:43:12;101302.06;;;6.85;77.33
49627;BME280;35527;54.616;39.786;2022-10-16T01:46:18;101304.63;;;6.88;77.13
49627;BME280;35527;54.616;39.786;2022-10-16T01:49:26;101296.03;;;6.77;75.95
49627;BME280;35527;54.616;39.786;2022-10-16T01:52:37;101291.75;;;6.73;76.06
49627;BME280;35527;54.616;39.786;2022-10-16T01:55:46;101299.47;;;6.73;76.69
49627;BME280;35527;54.616;39.786;2022-10-16T01:58:56;101306.31;;;6.83;76.59
49627;BME280;35527;54.616;39.786;2022-10-16T02:02:06;101301.19;;;6.77;77.09
49627;BME280;35527;54.616;39.786;2022-10-16T02:08:17;101308.03;;;6.75;77.87
49627;BME280;35527;54.616;39.786;2022-10-16T02:11:21;101306.31;;;6.66;77.72
49627;BME280;35527;54.616;39.786;2022-10-16T02:14:25;101300.31;;;6.64;78.67
49627;BME280;35527;54.616;39.786;2022-10-16T02:17:30;101303.75;;;6.66;79.19
49627;BME280;35527;54.616;39.786;2022-10-16T02:20:40;101317.47;;;6.68;79.53
49627;BME280;35527;54.616;39.786;2022-10-16T02:23:51;101305.44;;;6.55;79.88
49627;BME280;35527;54.616;39.786;2022-10-16T02:27:20;101328.63;;;6.67;80.48
49627;BME280;35527;54.616;39.786;2022-10-16T02:30:39;101329.47;;;6.66;80.58
49627;BME280;35527;54.616;39.786;2022-10-16T02:33:45;101302.88;;;6.52;80.65
49627;BME280;35527;54.616;39.786;2022-10-16T02:36:50;101324.31;;;6.60;81.56
49627;BME280;35527;54.616;39.786;2022-10-16T02:39:57;101326.03;;;6.60;81.49
49627;BME280;35527;54.616;39.786;2022-10-16T02:43:03;101318.31;;;6.60;81.63
49627;BME280;35527;54.616;39.786;2022-10-16T02:46:08;101333.75;;;6.58;81.52
49627;BME280;35527;54.616;39.786;2022-10-16T02:49:10;101332.91;;;6.56;81.79
49627;BME280;35527;54.616;39.786;2022-10-16T02:52:16;101314.00;;;6.46;82.14
49627;BME280;35527;54.616;39.786;2022-10-16T02:55:20;101331.16;;;6.52;82.60
49627;BME280;35527;54.616;39.786;2022-10-16T02:58:25;101320.00;;;6.45;82.45
49627;BME280;35527;54.616;39.786;2022-10-16T03:01:32;101335.47;;;6.53;83.02
49627;BME280;35527;54.616;39.786;2022-10-16T03:04:35;101321.72;;;6.45;82.76
49627;BME280;35527;54.616;39.786;2022-10-16T03:07:40;101333.72;;;6.46;82.79
49627;BME280;35527;54.616;39.786;2022-10-16T03:10:45;101297.66;;;6.23;83.06
49627;BME280;35527;54.616;39.786;2022-10-16T03:13:47;101346.59;;;6.49;83.34
49627;BME280;35527;54.616;39.786;2022-10-16T03:16:50;101354.31;;;6.52;83.07
49627;BME280;35527;54.616;39.786;2022-10-16T03:19:53;101354.31;;;6.53;82.92
49627;BME280;35527;54.616;39.786;2022-10-16T03:22:56;101337.16;;;6.48;83.30
49627;BME280;35527;54.616;39.786;2022-10-16T03:26:01;101321.69;;;6.32;83.13
49627;BME280;35527;54.616;39.786;2022-10-16T03:29:05;101355.19;;;6.52;82.75
49627;BME280;35527;54.616;39.786;2022-10-16T03:32:11;101354.31;;;6.50;83.26
49627;BME280;35527;54.616;39.786;2022-10-16T03:35:17;101341.41;;;6.37;83.89
49627;BME280;35527;54.616;39.786;2022-10-16T03:38:21;101356.00;;;6.44;83.61
49627;BME280;35527;54.616;39.786;2022-10-16T03:41:24;101369.75;;;6.44;84.69
49627;BME280;35527;54.616;39.786;2022-10-16T03:44:28;101362.00;;;6.37;84.74
49627;BME280;35527;54.616;39.786;2022-10-16T03:47:32;101360.22;;;6.26;85.63
49627;BME280;35527;54.616;39.786;2022-10-16T03:50:35;101379.13;;;6.39;85.44
49627;BME280;35527;54.616;39.786;2022-10-16T03:53:40;101382.56;;;6.38;85.64
49627;BME280;35527;54.616;39.786;2022-10-16T03:56:45;101368.00;;;6.32;86.27
49627;BME280;35527;54.616;39.786;2022-10-16T03:59:49;101367.09;;;6.26;86.53
49627;BME280;35527;54.616;39.786;2022-10-16T04:02:53;101391.13;;;6.36;85.55
49627;BME280;35527;54.616;39.786;2022-10-16T04:05:56;101389.41;;;6.38;85.82
49627;BME280;35527;54.616;39.786;2022-10-16T04:09:02;101372.22;;;6.26;86.32
49627;BME280;35527;54.616;39.786;2022-10-16T04:12:05;101371.38;;;6.24;86.29
49627;BME280;35527;54.616;39.786;2022-10-16T04:15:08;101372.22;;;6.24;86.32
49627;BME280;35527;54.616;39.786;2022-10-16T04:18:11;101402.25;;;6.35;86.38
49627;BME280;35527;54.616;39.786;2022-10-16T04:21:19;101397.97;;;6.35;86.98
49627;BME280;35527;54.616;39.786;2022-10-16T04:24:23;101381.66;;;6.25;86.02
49627;BME280;35527;54.616;39.786;2022-10-16T04:27:26;101386.81;;;6.28;86.81
49627;BME280;35527;54.616;39.786;2022-10-16T04:30:29;101407.41;;;6.35;87.04
49627;BME280;35527;54.616;39.786;2022-10-16T04:33:36;101404.00;;;6.36;86.65
49627;BME280;35527;54.616;39.786;2022-10-16T04:36:39;101382.44;;;6.12;86.55
49627;BME280;35527;54.616;39.786;2022-10-16T04:39:43;101419.44;;;6.39;86.68
49627;BME280;35527;54.616;39.786;2022-10-16T04:42:45;101431.44;;;6.40;86.21
49627;BME280;35527;54.616;39.786;2022-10-16T04:45:51;101422.00;;;6.36;86.41
49627;BME280;35527;54.616;39.786;2022-10-16T04:48:58;101416.78;;;6.29;86.86
49627;BME280;35527;54.616;39.786;2022-10-16T04:52:01;101406.56;;;6.32;87.27
49627;BME280;35527;54.616;39.786;2022-10-16T04:55:08;101403.97;;;6.32;86.73
49627;BME280;35527;54.616;39.786;2022-10-16T04:58:13;101435.78;;;6.53;87.04
49627;BME280;35527;54.616;39.786;2022-10-16T05:01:19;101439.19;;;6.53;86.84
49627;BME280;35527;54.616;39.786;2022-10-16T05:04:24;101433.19;;;6.54;86.34
49627;BME280;35527;54.616;39.786;2022-10-16T05:07:27;101427.22;;;6.56;85.79
49627;BME280;35527;54.616;39.786;2022-10-16T05:10:33;101442.66;;;6.66;85.46
49627;BME280;35527;54.616;39.786;2022-10-16T05:13:43;101423.78;;;6.57;85.38
49627;BME280;35527;54.616;39.786;2022-10-16T05:16:46;101444.41;;;6.70;84.99
49627;BME280;35527;54.616;39.786;2022-10-16T05:19:52;101449.53;;;6.72;85.69
49627;BME280;35527;54.616;39.786;2022-10-16T05:23:21;101451.28;;;6.79;85.38
49627;BME280;35527;54.616;39.786;2022-10-16T05:26:29;101454.72;;;6.83;84.80
49627;BME280;35527;54.616;39.786;2022-10-16T05:29:34;101459.03;;;6.91;84.49
49627;BME280;35527;54.616;39.786;2022-10-16T05:32:40;101451.34;;;6.96;84.10
49627;BME280;35527;54.616;39.786;2022-10-16T05:35:46;101475.38;;;7.12;82.62
49627;BME280;35527;54.616;39.786;2022-10-16T05:38:51;101458.22;;;7.20;81.08
49627;BME280;35527;54.616;39.786;2022-10-16T05:41:53;101463.41;;;7.44;80.66
49627;BME280;35527;54.616;39.786;2022-10-16T05:44:56;101454.81;;;7.61;77.89
49627;BME280;35527;54.616;39.786;2022-10-16T05:47:59;101461.69;;;7.79;76.96
49627;BME280;35527;54.616;39.786;2022-10-16T05:51:12;101459.06;;;8.00;74.90
49627;BME280;35527;54.616;39.786;2022-10-16T05:54:17;101470.97;;;8.64;71.32
49627;BME280;35527;54.616;39.786;2022-10-16T05:57:21;101458.41;;;9.44;66.62
49627;BME280;35527;54.616;39.786;2022-10-16T06:00:27;101459.81;;;9.82;63.22
49627;BME280;35527;54.616;39.786;2022-10-16T06:03:54;101474.50;;;9.79;62.25
49627;BME280;35527;54.616;39.786;2022-10-16T06:07:03;101466.81;;;9.71;61.15
49627;BME280;35527;54.616;39.786;2022-10-16T06:10:06;101473.66;;;10.60;59.77
49627;BME280;35527;54.616;39.786;2022-10-16T06:13:10;101451.47;;;13.68;51.25
49627;BME280;35527;54.616;39.786;2022-10-16T06:16:39;101468.59;;;16.06;43.76
49627;BME280;35527;54.616;39.786;2022-10-16T06:19:42;101460.63;;;17.25;39.55
49627;BME280;35527;54.616;39.786;2022-10-16T06:22:46;101466.94;;;17.64;38.96
49627;BME280;35527;54.616;39.786;2022-10-16T06:25:52;101449.84;;;17.96;37.37
49627;BME280;35527;54.616;39.786;2022-10-16T06:29:00;101476.13;;;18.54;36.56
49627;BME280;35527;54.616;39.786;2022-10-16T06:32:02;101483.75;;;19.16;35.12
49627;BME280;35527;54.616;39.786;2022-10-16T06:35:07;101470.88;;;18.54;34.90
49627;BME280;35527;54.616;39.786;2022-10-16T06:38:16;101479.53;;;18.36;35.15
49627;BME280;35527;54.616;39.786;2022-10-16T06:41:22;101479.84;;;18.49;34.52
49627;BME280;35527;54.616;39.786;2022-10-16T06:44:25;101484.88;;;18.14;35.01
49627;BME280;35527;54.616;39.786;2022-10-16T06:47:27;101460.94;;;18.80;34.37
49627;BME280;35527;54.616;39.786;2022-10-16T06:50:31;101467.34;;;19.47;33.40
49627;BME280;35527;54.616;39.786;2022-10-16T06:53:40;101493.94;;;20.10;31.76
49627;BME280;35527;54.616;39.786;2022-10-16T06:56:52;101494.22;;;20.21;31.74
49627;BME280;35527;54.616;39.786;2022-10-16T06:59:58;101501.81;;;20.77;30.76
49627;BME280;35527;54.616;39.786;2022-10-16T07:03:01;101503.94;;;20.86;30.41
49627;BME280;35527;54.616;39.786;2022-10-16T07:06:09;101495.69;;;20.43;31.15
49627;BME280;35527;54.616;39.786;2022-10-16T07:09:13;101498.44;;;20.41;30.40
49627;BME280;35527;54.616;39.786;2022-10-16T07:12:17;101499.50;;;20.04;30.80
49627;BME280;35527;54.616;39.786;2022-10-16T07:15:22;101500.72;;;20.14;30.80
49627;BME280;35527;54.616;39.786;2022-10-16T07:18:26;101501.78;;;20.28;30.99
49627;BME280;35527;54.616;39.786;2022-10-16T07:21:35;101498.25;;;20.44;30.46
49627;BME280;35527;54.616;39.786;2022-10-16T07:25:05;101503.28;;;20.49;30.71
49627;BME280;35527;54.616;39.786;2022-10-16T07:28:12;101518.06;;;21.01;30.04
49627;BME280;35527;54.616;39.786;2022-10-16T07:31:16;101498.00;;;20.66;30.23
49627;BME280;35527;54.616;39.786;2022-10-16T07:34:20;101520.16;;;20.78;30.24
49627;BME280;35527;54.616;39.786;2022-10-16T07:37:25;101496.38;;;21.11;29.73
49627;BME280;35527;54.616;39.786;2022-10-16T07:40:29;101515.81;;;21.25;29.48
49627;BME280;35527;54.616;39.786;2022-10-16T07:43:33;101513.13;;;21.10;29.96
49627;BME280;35527;54.616;39.786;2022-10-16T07:46:36;101512.00;;;21.46;30.00
49627;BME280;35527;54.616;39.786;2022-10-16T07:49:39;101505.97;;;21.74;29.29
49627;BME280;35527;54.616;39.786;2022-10-16T07:52:45;101502.63;;;21.56;29.65
49627;BME280;35527;54.616;39.786;2022-10-16T07:55:48;101516.41;;;21.30;29.45
49627;BME280;35527;54.616;39.786;2022-10-16T07:58:51;101516.94;;;21.05;29.89
49627;BME280;35527;54.616;39.786;2022-10-16T08:01:57;101514.97;;;21.08;29.78
49627;BME280;35527;54.616;39.786;2022-10-16T08:05:04;101522.38;;;21.49;29.50
49627;BME280;35527;54.616;39.786;2022-10-16T08:08:12;101516.69;;;21.09;29.74
49627;BME280;35527;54.616;39.786;2022-10-16T08:11:16;101494.94;;;20.58;30.65
49627;BME280;35527;54.616;39.786;2022-10-16T08:14:22;101507.53;;;21.01;30.41
49627;BME280;35527;54.616;39.786;2022-10-16T08:17:27;101518.44;;;21.25;29.75
49627;BME280;35527;54.616;39.786;2022-10-16T08:20:32;101512.16;;;21.27;29.75
49627;BME280;35527;54.616;39.786;2022-10-16T08:23:37;101512.75;;;21.17;29.50
49627;BME280;35527;54.616;39.786;2022-10-16T08:27:05;101504.44;;;21.40;29.14
49627;BME280;35527;54.616;39.786;2022-10-16T08:30:09;101511.81;;;21.33;29.42
49627;BME280;35527;54.616;39.786;2022-10-16T08:33:15;101466.31;;;21.62;28.62
49627;BME280;35527;54.616;39.786;2022-10-16T08:36:20;101494.16;;;21.66;28.93
49627;BME280;35527;54.616;39.786;2022-10-16T08:39:26;101505.31;;;21.41;29.20
49627;BME280;35527;54.616;39.786;2022-10-16T08:50:10;101509.00;;;20.57;30.16
49627;BME280;35527;54.616;39.786;2022-10-16T08:53:19;101498.66;;;20.86;29.75
49627;BME280;35527;54.616;39.786;2022-10-16T08:56:27;101492.41;;;20.73;29.83
49627;BME280;35527;54.616;39.786;2022-10-16T08:59:30;101490.72;;;20.38;30.30
49627;BME280;35527;54.616;39.786;2022-10-16T09:03:10;101506.38;;;20.24;30.17
49627;BME280;35527;54.616;39.786;2022-10-16T09:16:48;101490.03;;;19.67;30.45
49627;BME280;35527;54.616;39.786;2022-10-16T09:23:35;101504.59;;;19.19;30.94
49627;BME280;35527;54.616;39.786;2022-10-16T09:27:12;101496.97;;;18.76;31.10
49627;BME280;35527;54.616;39.786;2022-10-16T09:30:19;101501.03;;;19.20;31.29
49627;BME280;35527;54.616;39.786;2022-10-16T09:33:28;101487.63;;;18.89;30.59
49627;BME280;35527;54.616;39.786;2022-10-16T09:36:41;101485.13;;;18.28;32.18
49627;BME280;35527;54.616;39.786;2022-10-16T09:39:50;101485.56;;;17.76;32.24
49627;BME280;35527;54.616;39.786;2022-10-16T09:46:30;101471.94;;;16.58;34.20
49627;BME280;35527;54.616;39.786;2022-10-16T09:49:35;101486.84;;;16.80;33.97
49627;BME280;35527;54.616;39.786;2022-10-16T09:52:39;101481.47;;;17.06;34.54
49627;BME280;35527;54.616;39.786;2022-10-16T09:55:51;101481.31;;;16.87;34.88
49627;BME280;35527;54.616;39.786;2022-10-16T09:58:59;101481.44;;;16.12;35.45
49627;BME280;35527;54.616;39.786;2022-10-16T10:02:11;101484.75;;;14.83;37.93
49627;BME280;35527;54.616;39.786;2022-10-16T10:05:26;101469.69;;;14.93;38.20
49627;BME280;35527;54.616;39.786;2022-10-16T10:08:31;101484.13;;;14.43;38.85
49627;BME280;35527;54.616;39.786;2022-10-16T10:11:44;101483.13;;;13.84;40.19
49627;BME280;35527;54.616;39.786;2022-10-16T10:14:50;101486.13;;;13.68;41.02
49627;BME280;35527;54.616;39.786;2022-10-16T10:17:55;101473.72;;;15.03;38.83
49627;BME280;35527;54.616;39.786;2022-10-16T10:21:02;101468.63;;;15.26;38.03
49627;BME280;35527;54.616;39.786;2022-10-16T10:24:16;101465.06;;;14.73;37.80
49627;BME280;35527;54.616;39.786;2022-10-16T10:27:19;101460.00;;;15.24;38.06
49627;BME280;35527;54.616;39.786;2022-10-16T10:38:29;101462.56;;;15.79;37.44
49627;BME280;35527;54.616;39.786;2022-10-16T10:41:44;101471.22;;;16.06;37.03
49627;BME280;35527;54.616;39.786;2022-10-16T10:45:26;101464.31;;;16.29;36.69
49627;BME280;35527;54.616;39.786;2022-10-16T10:59:22;101467.09;;;16.48;35.78
49627;BME280;35527;54.616;39.786;2022-10-16T11:02:52;101465.88;;;16.34;36.34
49627;BME280;35527;54.616;39.786;2022-10-16T11:06:10;101477.97;;;15.87;36.95
49627;BME280;35527;54.616;39.786;2022-10-16T11:09:21;101467.38;;;15.65;37.41
49627;BME280;35527;54.616;39.786;2022-10-16T11:12:38;101467.16;;;15.72;37.79
49627;BME280;35527;54.616;39.786;2022-10-16T11:15:44;101456.44;;;15.53;37.90
49627;BME280;35527;54.616;39.786;2022-10-16T11:19:14;101472.91;;;15.29;37.61
49627;BME280;35527;54.616;39.786;2022-10-16T11:25:31;101462.97;;;15.68;37.62
49627;BME280;35527;54.616;39.786;2022-10-16T11:29:03;101460.16;;;15.20;37.85
49627;BME280;35527;54.616;39.786;2022-10-16T11:32:25;101461.84;;;14.94;38.96
49627;BME280;35527;54.616;39.786;2022-10-16T11:38:52;101460.56;;;14.79;39.52
49627;BME280;35527;54.616;39.786;2022-10-16T11:45:34;101453.59;;;15.08;38.82
49627;BME280;35527;54.616;39.786;2022-10-16T11:48:48;101455.66;;;14.69;39.77
49627;BME280;35527;54.616;39.786;2022-10-16T11:55:14;101460.63;;;13.81;39.67
49627;BME280;35527;54.616;39.786;2022-10-16T12:08:47;101458.69;;;13.55;41.42
49627;BME280;35527;54.616;39.786;2022-10-16T12:11:51;101454.13;;;13.65;42.62
49627;BME280;35527;54.616;39.786;2022-10-16T12:18:23;101462.88;;;13.96;41.65
49627;BME280;35527;54.616;39.786;2022-10-16T12:21:30;101440.03;;;14.06;41.80
49627;BME280;35527;54.616;39.786;2022-10-16T12:24:42;101450.78;;;13.60;42.28
49627;BME280;35527;54.616;39.786;2022-10-16T12:28:21;101440.91;;;13.01;43.25
49627;BME280;35527;54.616;39.786;2022-10-16T12:31:37;101426.97;;;13.05;43.38
49627;BME280;35527;54.616;39.786;2022-10-16T12:34:48;101426.44;;;13.28;42.63
49627;BME280;35527;54.616;39.786;2022-10-16T12:37:53;101446.78;;;13.46;42.43
49627;BME280;35527;54.616;39.786;2022-10-16T12:41:08;101434.25;;;13.26;42.80
49627;BME280;35527;54.616;39.786;2022-10-16T12:44:23;101418.72;;;13.23;43.41
49627;BME280;35527;54.616;39.786;2022-10-16T12:50:38;101445.25;;;13.00;43.17
49627;BME280;35527;54.616;39.786;2022-10-16T12:53:43;101438.66;;;12.85;43.13
49627;BME280;35527;54.616;39.786;2022-10-16T12:57:16;101393.00;;;12.35;43.67
49627;BME280;35527;54.616;39.786;2022-10-16T13:07:17;101431.41;;;12.19;44.76
49627;BME280;35527;54.616;39.786;2022-10-16T13:10:28;101430.09;;;11.97;45.21
49627;BME280;35527;54.616;39.786;2022-10-16T13:21:55;101426.63;;;11.46;47.23
49627;BME280;35527;54.616;39.786;2022-10-16T13:30:54;101428.88;;;11.12;47.15
49627;BME280;35527;54.616;39.786;2022-10-16T13:33:59;101430.03;;;10.94;48.31
49627;BME280;35527;54.616;39.786;2022-10-16T13:37:17;101432.81;;;10.82;48.86
49627;BME280;35527;54.616;39.786;2022-10-16T13:40:23;101429.53;;;10.68;49.46
49627;BME280;35527;54.616;39.786;2022-10-16T13:43:47;101427.00;;;10.63;49.21
49627;BME280;35527;54.616;39.786;2022-10-16T13:47:02;101405.81;;;10.33;49.39
49627;BME280;35527;54.616;39.786;2022-10-16T13:50:13;101426.56;;;10.30;50.65
49627;BME280;35527;54.616;39.786;2022-10-16T13:53:16;101418.03;;;10.19;50.70
49627;BME280;35527;54.616;39.786;2022-10-16T13:56:29;101425.91;;;10.07;51.17
49627;BME280;35527;54.616;39.786;2022-10-16T13:59:35;101430.34;;;9.99;51.90
49627;BME280;35527;54.616;39.786;2022-10-16T14:02:42;101423.53;;;9.87;51.76
49627;BME280;35527;54.616;39.786;2022-10-16T14:05:51;101427.94;;;9.82;51.83
49627;BME280;35527;54.616;39.786;2022-10-16T14:09:07;101420.22;;;9.74;52.29
49627;BME280;35527;54.616;39.786;2022-10-16T14:12:12;101428.97;;;9.62;52.77
49627;BME280;35527;54.616;39.786;2022-10-16T14:15:17;101420.41;;;9.53;53.04
49627;BME280;35527;54.616;39.786;2022-10-16T14:18:57;101430.09;;;9.29;53.82
49627;BME280;35527;54.616;39.786;2022-10-16T14:22:35;101419.97;;;9.05;54.76
49627;BME280;35527;54.616;39.786;2022-10-16T14:25:38;101420.81;;;9.05;55.30
49627;BME280;35527;54.616;39.786;2022-10-16T14:28:44;101404.56;;;8.91;55.43
49627;BME280;35527;54.616;39.786;2022-10-16T14:31:55;101422.59;;;8.97;55.56
49627;BME280;35527;54.616;39.786;2022-10-16T14:35:01;101423.53;;;8.82;56.59
49627;BME280;35527;54.616;39.786;2022-10-16T14:38:06;101433.03;;;8.74;56.90
49627;BME280;35527;54.616;39.786;2022-10-16T14:41:21;101424.50;;;8.64;57.91
49627;BME280;35527;54.616;39.786;2022-10-16T14:44:31;101411.66;;;8.50;58.44
49627;BME280;35527;54.616;39.786;2022-10-16T14:47:50;101418.56;;;8.50;59.58
49627;BME280;35527;54.616;39.786;2022-10-16T14:50:55;101421.16;;;8.36;60.14
49627;BME280;35527;54.616;39.786;2022-10-16T14:53:58;101426.34;;;8.33;61.58
49627;BME280;35527;54.616;39.786;2022-10-16T14:57:17;101428.91;;;8.24;61.81
49627;BME280;35527;54.616;39.786;2022-10-16T15:00:22;101420.34;;;8.12;63.35
49627;BME280;35527;54.616;39.786;2022-10-16T15:03:26;101437.56;;;8.10;64.12
49627;BME280;35527;54.616;39.786;2022-10-16T15:06:29;101453.06;;;8.07;64.70
49627;BME280;35527;54.616;39.786;2022-10-16T15:09:33;101417.88;;;7.85;65.32
49627;BME280;35527;54.616;39.786;2022-10-16T15:12:38;101443.63;;;7.89;65.85
49627;BME280;35527;54.616;39.786;2022-10-16T15:15:45;101443.63;;;7.91;67.11
49627;BME280;35527;54.616;39.786;2022-10-16T15:18:48;101444.50;;;7.78;66.60
49627;BME280;35527;54.616;39.786;2022-10-16T15:21:51;101440.22;;;7.66;67.94
49627;BME280;35527;54.616;39.786;2022-10-16T15:24:56;101417.91;;;7.40;68.83
49627;BME280;35527;54.616;39.786;2022-10-16T15:28:00;101442.78;;;7.55;69.67
49627;BME280;35527;54.616;39.786;2022-10-16T15:31:05;101440.22;;;7.48;70.40
49627;BME280;35527;54.616;39.786;2022-10-16T15:34:11;101421.34;;;7.33;70.83
49627;BME280;35527;54.616;39.786;2022-10-16T15:37:17;101428.22;;;7.31;71.27
49627;BME280;35527;54.616;39.786;2022-10-16T15:40:22;101445.38;;;7.41;71.84
49627;BME280;35527;54.616;39.786;2022-10-16T15:43:28;101457.41;;;7.42;72.12
49627;BME280;35527;54.616;39.786;2022-10-16T15:46:32;101458.25;;;7.35;72.35
49627;BME280;35527;54.616;39.786;2022-10-16T15:49:37;101453.94;;;7.23;72.69
49627;BME280;35527;54.616;39.786;2022-10-16T15:52:40;101459.09;;;7.20;74.07
49627;BME280;35527;54.616;39.786;2022-10-16T15:55:43;101445.34;;;6.98;75.13
49627;BME280;35527;54.616;39.786;2022-10-16T15:58:45;101460.78;;;7.06;75.15
49627;BME280;35527;54.616;39.786;2022-10-16T16:01:49;101461.63;;;6.97;76.26
49627;BME280;35527;54.616;39.786;2022-10-16T16:04:59;101466.78;;;6.93;77.21
49627;BME280;35527;54.616;39.786;2022-10-16T16:08:03;101476.19;;;6.92;77.43
49627;BME280;35527;54.616;39.786;2022-10-16T16:11:09;101438.41;;;6.71;77.59
49627;BME280;35527;54.616;39.786;2022-10-16T16:14:13;101465.03;;;6.86;77.91
49627;BME280;35527;54.616;39.786;2022-10-16T16:17:17;101467.59;;;6.81;78.25
49627;BME280;35527;54.616;39.786;2022-10-16T16:20:20;101472.75;;;6.83;78.77
49627;BME280;35527;54.616;39.786;2022-10-16T16:23:24;101438.31;;;6.51;78.91
49627;BME280;35527;54.616;39.786;2022-10-16T16:26:29;101458.09;;;6.65;79.37
49627;BME280;35527;54.616;39.786;2022-10-16T16:29:36;101477.00;;;6.73;79.08
49627;BME280;35527;54.616;39.786;2022-10-16T16:32:41;101465.81;;;6.66;79.33
49627;BME280;35527;54.616;39.786;2022-10-16T16:35:47;101467.53;;;6.64;79.73
49627;BME280;35527;54.616;39.786;2022-10-16T16:38:51;101465.81;;;6.62;80.36
49627;BME280;35527;54.616;39.786;2022-10-16T16:41:57;101463.22;;;6.56;80.77
49627;BME280;35527;54.616;39.786;2022-10-16T16:45:07;101455.47;;;6.48;80.99
49627;BME280;35527;54.616;39.786;2022-10-16T16:48:09;101469.22;;;6.53;81.12
49627;BME280;35527;54.616;39.786;2022-10-16T16:51:17;101467.47;;;6.49;81.25
49627;BME280;35527;54.616;39.786;2022-10-16T16:54:21;101473.47;;;6.48;81.56
49627;BME280;35527;54.616;39.786;2022-10-16T16:57:25;101458.03;;;6.45;81.44
49627;BME280;35527;54.616;39.786;2022-10-16T17:00:29;101466.59;;;6.45;81.58
49627;BME280;35527;54.616;39.786;2022-10-16T17:03:35;101476.91;;;6.48;82.00
49627;BME280;35527;54.616;39.786;2022-10-16T17:06:37;101481.16;;;6.43;82.39
49627;BME280;35527;54.616;39.786;2022-10-16T17:09:43;101482.00;;;6.41;82.00
49627;BME280;35527;54.616;39.786;2022-10-16T17:12:49;101469.09;;;6.31;82.60
49627;BME280;35527;54.616;39.786;2022-10-16T17:15:59;101471.66;;;6.31;83.01
49627;BME280;35527;54.616;39.786;2022-10-16T17:19:09;101463.94;;;6.27;82.82
49627;BME280;35527;54.616;39.786;2022-10-16T17:22:15;101457.00;;;6.14;83.02
49627;BME280;35527;54.616;39.786;2022-10-16T17:25:21;101463.00;;;6.14;83.33
49627;BME280;35527;54.616;39.786;2022-10-16T17:28:26;101444.13;;;6.07;83.39
49627;BME280;35527;54.616;39.786;2022-10-16T17:31:34;101461.28;;;6.15;83.37
49627;BME280;35527;54.616;39.786;2022-10-16T17:34:39;101444.06;;;6.00;83.51
49627;BME280;35527;54.616;39.786;2022-10-16T17:37:43;101449.28;;;6.11;83.21
49627;BME280;35527;54.616;39.786;2022-10-16T17:40:48;101442.41;;;6.05;83.46
49627;BME280;35527;54.616;39.786;2022-10-16T17:43:51;101445.81;;;6.04;83.20
49627;BME280;35527;54.616;39.786;2022-10-16T17:46:56;101444.09;;;6.03;82.86
49627;BME280;35527;54.616;39.786;2022-10-16T17:49:58;101419.13;;;5.85;83.32
49627;BME280;35527;54.616;39.786;2022-10-16T17:53:05;101421.63;;;5.80;83.53
49627;BME280;35527;54.616;39.786;2022-10-16T17:56:12;101431.97;;;5.88;83.57
49627;BME280;35527;54.616;39.786;2022-10-16T17:59:16;101438.84;;;5.91;83.56
49627;BME280;35527;54.616;39.786;2022-10-16T18:02:21;101458.53;;;5.92;83.73